Time;durP1;ratioP1;P1;durP2;ratioP2;P2;SDS_P1;SDS_P2;PMS_P1;PMS_P2;Temp;Humidity;BMP_temperature;BMP_pressure;BME280_temperature;BME280_humidity;BME280_pressure;Samples;Min_cycle;Max_cycle;Signal;HPM_P1;HPM_P2
2023/05/20 00:07:44;;;;;;;;;;;;;;;14.79;66.47;102751.28;20799660;28;19925;-56
2023/05/20 00:18:06;;;;;;;;;;;;;;;14.75;66.80;102754.81;20789684;28;19929;-56
2023/05/20 00:28:29;;;;;;;;;;;;;;;14.67;66.08;102756.66;20799145;28;20008;-57
2023/05/20 00:38:50;;;;;;;;;;;;;;;14.67;66.55;102756.66;20814212;28;19960;-57
2023/05/20 00:49:12;;;;;;;;;;;;;;;14.66;66.21;102754.97;20790676;28;20375;-56
2023/05/20 00:59:35;;;;;;;;;;;;;;;14.65;65.85;102747.16;20778910;28;20711;-57
2023/05/20 01:09:56;;;;;;;;;;;;;;;14.62;65.17;102744.59;20779873;28;19933;-57
2023/05/20 01:20:19;;;;;;;;;;;;;;;14.60;64.38;102743.75;20780301;28;19929;-55
2023/05/20 01:30:44;;;;;;;;;;;;;;;14.57;64.56;102744.69;20812645;28;20043;-55
2023/05/20 01:41:06;;;;;;;;;;;;;;;14.44;63.84;102753.56;20818511;28;20384;-57
2023/05/20 01:51:29;;;;;;;;;;;;;;;14.27;62.38;102750.34;20812666;28;19925;-56
2023/05/20 02:01:51;;;;;;;;;;;;;;;14.12;62.78;102740.09;20811142;28;19939;-57
2023/05/20 02:12:15;;;;;;;;;;;;;;;13.97;62.08;102745.53;20806299;28;19988;-57
2023/05/20 02:22:37;;;;;;;;;;;;;;;13.79;61.64;102740.56;20823902;28;19940;-57
2023/05/20 02:32:58;;;;;;;;;;;;;;;13.59;58.96;102746.00;20812167;28;19982;-57
2023/05/20 02:43:20;;;;;;;;;;;;;;;13.47;61.73;102750.47;20821470;28;20013;-56
2023/05/20 02:53:41;;;;;;;;;;;;;;;13.41;62.80;102742.72;20819621;28;19940;-57
2023/05/20 03:04:03;;;;;;;;;;;;;;;13.37;63.34;102741.06;20813827;28;19932;-57
2023/05/20 03:14:24;;;;;;;;;;;;;;;13.13;62.24;102746.50;20808361;28;19925;-56
2023/05/20 03:24:47;;;;;;;;;;;;;;;13.10;63.96;102743.06;20798978;28;19940;-57
2023/05/20 03:35:08;;;;;;;;;;;;;;;13.00;64.13;102746.56;20800152;28;19936;-57
2023/05/20 03:45:30;;;;;;;;;;;;;;;12.92;64.99;102743.19;20804865;28;20355;-56
2023/05/20 03:55:51;;;;;;;;;;;;;;;12.88;64.19;102751.00;20802353;28;19984;-56
2023/05/20 04:06:13;;;;;;;;;;;;;;;12.68;64.38;102758.97;20797272;28;19936;-57
2023/05/20 04:16:36;;;;;;;;;;;;;;;12.67;64.36;102759.00;20804794;28;19924;-57
2023/05/20 04:26:57;;;;;;;;;;;;;;;12.61;65.20;102757.31;20803170;28;19925;-57
2023/05/20 04:37:19;;;;;;;;;;;;;;;12.56;64.99;102763.41;20799670;28;20358;-56
2023/05/20 04:47:43;;;;;;;;;;;;;;;12.57;64.85;102762.53;20789300;28;20651;-55
2023/05/20 04:58:05;;;;;;;;;;;;;;;12.55;64.95;102762.53;20786375;28;19925;-57
2023/05/20 05:08:26;;;;;;;;;;;;;;;12.74;64.75;102764.13;20802394;28;19936;-56
2023/05/20 05:18:48;;;;;;;;;;;;;;;12.83;64.53;102753.66;20798881;28;20020;-57
2023/05/20 05:29:09;;;;;;;;;;;;;;;12.88;65.00;102762.28;20795981;28;19925;-56
2023/05/20 05:39:33;;;;;;;;;;;;;;;12.93;65.02;102757.91;20797335;28;19940;-56
2023/05/20 05:49:54;;;;;;;;;;;;;;;13.08;64.96;102755.22;20784061;28;20459;-56
2023/05/20 06:00:16;;;;;;;;;;;;;;;13.26;65.33;102748.13;20797010;28;19925;-56
2023/05/20 06:10:37;;;;;;;;;;;;;;;13.36;64.48;102762.72;20805641;28;20411;-57
2023/05/20 06:20:59;;;;;;;;;;;;;;;13.53;65.03;102753.00;20817876;28;19925;-57
2023/05/20 06:31:20;;;;;;;;;;;;;;;13.63;64.35;102754.63;20812010;28;19936;-56
2023/05/20 06:41:43;;;;;;;;;;;;;;;13.95;64.85;102742.91;20796057;28;19936;-57
2023/05/20 06:52:04;;;;;;;;;;;;;;;14.34;65.84;102738.09;20805970;28;19933;-55
2023/05/20 07:02:26;;;;;;;;;;;;;;;14.54;64.61;102729.06;20807734;28;19925;-56
2023/05/20 07:12:47;;;;;;;;;;;;;;;14.69;63.94;102721.03;20782999;28;19933;-56
2023/05/20 07:23:08;;;;;;;;;;;;;;;14.95;64.48;102720.56;20811435;28;19933;-56
2023/05/20 07:33:30;;;;;;;;;;;;;;;15.20;64.06;102710.56;20804581;28;20535;-56
2023/05/20 07:43:52;;;;;;;;;;;;;;;15.43;64.85;102704.06;20796398;28;19929;-56
2023/05/20 07:54:14;;;;;;;;;;;;;;;15.65;64.79;102691.41;20797801;28;19936;-56
2023/05/20 08:04:36;;;;;;;;;;;;;;;15.74;64.79;102680.78;20791130;28;20640;-56
2023/05/20 08:14:58;;;;;;;;;;;;;;;16.04;64.37;102673.13;20802260;28;19936;-56
2023/05/20 08:25:19;;;;;;;;;;;;;;;16.46;63.08;102658.19;20788840;28;20035;-56
2023/05/20 08:35:41;;;;;;;;;;;;;;;16.75;62.84;102662.69;20801047;28;19962;-56
2023/05/20 08:46:05;;;;;;;;;;;;;;;17.01;62.43;102648.00;20809780;28;20399;-57
2023/05/20 08:56:26;;;;;;;;;;;;;;;17.33;61.38;102641.00;20787689;28;20421;-55
2023/05/20 09:06:51;;;;;;;;;;;;;;;17.69;61.20;102624.28;20796813;28;19972;-57
2023/05/20 09:17:12;;;;;;;;;;;;;;;17.97;60.25;102615.50;20803669;28;19936;-57
2023/05/20 09:27:35;;;;;;;;;;;;;;;18.20;57.90;102611.28;20800634;28;20016;-57
2023/05/20 09:37:57;;;;;;;;;;;;;;;18.20;58.75;102591.16;20800466;28;19929;-56
2023/05/20 09:48:21;;;;;;;;;;;;;;;18.53;59.45;102581.34;20823852;28;20430;-57
2023/05/20 09:58:43;;;;;;;;;;;;;;;19.05;58.19;102586.41;20813026;28;19925;-57
2023/05/20 10:09:31;;;;;;;;;;;;;;;19.36;56.03;102568.63;20810961;28;20004;-57
2023/05/20 10:19:59;;;;;;;;;;;;;;;19.46;54.41;102553.38;20817525;28;19929;-56
2023/05/20 10:30:21;;;;;;;;;;;;;;;19.79;54.03;102531.00;20815850;28;20027;-57
2023/05/20 10:40:43;;;;;;;;;;;;;;;20.10;54.51;102520.94;20807381;28;20340;-56
2023/05/20 10:51:10;;;;;;;;;;;;;;;20.50;53.87;102507.78;20816626;28;19935;-56
2023/05/20 11:01:31;;;;;;;;;;;;;;;20.67;53.03;102492.13;20812704;28;20035;-56
2023/05/20 11:11:54;;;;;;;;;;;;;;;21.01;52.84;102478.28;20798214;28;19929;-57
2023/05/20 11:22:15;;;;;;;;;;;;;;;20.85;52.66;102464.94;20804389;28;20275;-57
2023/05/20 11:32:36;;;;;;;;;;;;;;;20.94;51.33;102451.34;20792995;28;20332;-55
2023/05/20 11:42:59;;;;;;;;;;;;;;;20.98;51.07;102447.66;20808333;28;20339;-56
2023/05/20 11:53:21;;;;;;;;;;;;;;;20.74;53.47;102455.84;20808105;28;19936;-56
2023/05/20 12:03:43;;;;;;;;;;;;;;;20.18;55.43;102461.00;20801057;28;19974;-57
2023/05/20 12:14:05;;;;;;;;;;;;;;;19.95;55.68;102447.97;20788971;28;19937;-56
2023/05/20 12:24:26;;;;;;;;;;;;;;;19.89;55.56;102448.22;20799030;28;19925;-56
2023/05/20 12:34:47;;;;;;;;;;;;;;;19.92;55.63;102445.50;20802916;28;20008;-57
2023/05/20 12:45:09;;;;;;;;;;;;;;;19.84;57.22;102437.94;20805192;28;19925;-56
2023/05/20 12:55:30;;;;;;;;;;;;;;;19.82;57.70;102441.53;20790316;28;19936;-57
2023/05/20 13:05:52;;;;;;;;;;;;;;;19.86;57.52;102435.22;20793121;28;19956;-55
2023/05/20 13:16:15;;;;;;;;;;;;;;;19.86;56.11;102417.69;20795901;28;20027;-57
2023/05/20 13:26:37;;;;;;;;;;;;;;;19.69;57.17;102403.56;20815443;28;20035;-57
2023/05/20 13:36:58;;;;;;;;;;;;;;;19.54;57.67;102404.22;20809346;28;19933;-57
2023/05/20 13:47:20;;;;;;;;;;;;;;;19.56;56.90;102397.09;20819729;28;19925;-56
2023/05/20 13:57:41;;;;;;;;;;;;;;;19.61;56.81;102385.50;20805246;28;20252;-57
2023/05/20 14:08:03;;;;;;;;;;;;;;;19.70;58.42;102365.88;20814531;28;19947;-57
2023/05/20 14:18:24;;;;;;;;;;;;;;;19.74;57.69;102359.56;20809487;28;19939;-57
2023/05/20 14:28:46;;;;;;;;;;;;;;;19.62;56.30;102349.56;20810491;28;19929;-57
2023/05/20 14:39:08;;;;;;;;;;;;;;;19.41;58.07;102340.84;20825775;28;19932;-57
2023/05/20 14:49:30;;;;;;;;;;;;;;;19.54;57.74;102333.31;20810637;28;19935;-57
2023/05/20 14:59:52;;;;;;;;;;;;;;;19.58;55.21;102332.22;20800921;28;19929;-55
2023/05/20 15:10:13;;;;;;;;;;;;;;;19.69;58.49;102319.50;20806515;28;20245;-57
2023/05/20 15:20:34;;;;;;;;;;;;;;;19.62;58.21;102323.31;20809163;28;19925;-57
2023/05/20 15:30:56;;;;;;;;;;;;;;;19.60;59.18;102323.38;20808197;28;20273;-57
2023/05/20 15:41:18;;;;;;;;;;;;;;;19.53;59.07;102313.19;20812106;28;19925;-57
2023/05/20 15:51:39;;;;;;;;;;;;;;;19.47;57.77;102290.69;20802980;28;19932;-57
2023/05/20 16:02:07;;;;;;;;;;;;;;;19.38;57.83;102292.84;20805886;28;20461;-57
2023/05/20 16:12:28;;;;;;;;;;;;;;;19.34;58.71;102286.06;20797358;28;20386;-57
2023/05/20 16:22:50;;;;;;;;;;;;;;;19.28;59.72;102275.75;20803260;28;19932;-57
2023/05/20 16:33:11;;;;;;;;;;;;;;;19.18;60.23;102277.91;20792679;28;19925;-55
2023/05/20 16:43:33;;;;;;;;;;;;;;;19.14;60.01;102275.50;20797842;28;19929;-55
2023/05/20 16:53:55;;;;;;;;;;;;;;;18.95;60.29;102265.75;20796760;28;20323;-57
2023/05/20 17:04:16;;;;;;;;;;;;;;;18.92;60.98;102273.75;20788106;28;19929;-56
2023/05/20 17:14:38;;;;;;;;;;;;;;;18.87;61.12;102267.88;20813544;28;19936;-57
2023/05/20 17:25:00;;;;;;;;;;;;;;;18.69;59.79;102276.50;20802045;28;19941;-57
2023/05/20 17:35:24;;;;;;;;;;;;;;;18.69;61.71;102280.88;20797843;28;19925;-57
2023/05/20 17:45:46;;;;;;;;;;;;;;;18.66;61.56;102284.47;20794046;28;19925;-57
2023/05/20 17:56:08;;;;;;;;;;;;;;;18.50;60.32;102275.50;20799644;28;19925;-56
2023/05/20 18:06:33;;;;;;;;;;;;;;;18.35;61.65;102281.31;20810141;28;19929;-55
2023/05/20 18:16:56;;;;;;;;;;;;;;;18.34;62.01;102295.34;20814211;28;20273;-57
2023/05/20 18:27:17;;;;;;;;;;;;;;;18.37;62.30;102295.22;20809889;28;19971;-57
2023/05/20 18:37:39;;;;;;;;;;;;;;;18.28;62.63;102294.69;20821217;28;20391;-56
2023/05/20 18:48:00;;;;;;;;;;;;;;;18.12;62.00;102289.22;20797882;28;19960;-57
2023/05/20 18:58:22;;;;;;;;;;;;;;;18.12;62.98;102288.34;20803318;28;19931;-57
2023/05/20 19:08:44;;;;;;;;;;;;;;;18.09;63.62;102294.56;20796521;28;19929;-57
2023/05/20 19:19:06;;;;;;;;;;;;;;;18.03;63.67;102294.78;20797569;28;19929;-57
2023/05/20 19:29:27;;;;;;;;;;;;;;;17.87;63.98;102307.59;20802655;28;20427;-57
2023/05/20 19:39:49;;;;;;;;;;;;;;;17.80;64.15;102313.13;20794725;28;19933;-57
2023/05/20 19:50:10;;;;;;;;;;;;;;;17.80;63.99;102310.50;20802656;28;19979;-55
2023/05/20 20:00:32;;;;;;;;;;;;;;;17.77;64.17;102308.84;20801704;28;19929;-56
2023/05/20 20:10:54;;;;;;;;;;;;;;;17.67;64.56;102290.91;20803244;28;20008;-57
2023/05/20 20:21:15;;;;;;;;;;;;;;;17.49;65.78;102291.56;20794796;28;19971;-55
2023/05/20 20:31:37;;;;;;;;;;;;;;;17.35;66.03;102305.09;20787215;28;20762;-57
2023/05/20 20:41:59;;;;;;;;;;;;;;;17.35;65.77;102296.38;20796030;28;19925;-56
2023/05/20 20:52:20;;;;;;;;;;;;;;;17.25;66.99;102285.34;20780156;28;20361;-55
2023/05/20 21:02:42;;;;;;;;;;;;;;;17.20;67.03;102281.19;20806716;28;20364;-57
2023/05/20 21:13:04;;;;;;;;;;;;;;;17.11;67.52;102274.50;20729861;28;1914506;-57
2023/05/20 21:23:26;;;;;;;;;;;;;;;17.07;67.62;102258.06;20794453;28;19929;-57
2023/05/20 21:33:47;;;;;;;;;;;;;;;17.01;67.32;102253.03;20776629;28;19926;-57
2023/05/20 21:44:08;;;;;;;;;;;;;;;16.94;67.76;102256.75;20810141;28;20482;-57
2023/05/20 21:54:30;;;;;;;;;;;;;;;16.75;68.79;102260.91;20808123;28;19930;-55
2023/05/20 22:04:51;;;;;;;;;;;;;;;16.72;69.21;102254.94;20810488;28;19975;-56
2023/05/20 22:15:13;;;;;;;;;;;;;;;16.70;71.75;102241.88;20797735;28;19932;-56
2023/05/20 22:25:35;;;;;;;;;;;;;;;16.64;68.76;102252.56;20808252;28;20008;-55
2023/05/20 22:35:57;;;;;;;;;;;;;;;16.60;69.97;102235.25;20807732;28;19960;-56
2023/05/20 22:46:18;;;;;;;;;;;;;;;16.57;72.52;102230.09;20809445;28;19944;-56
2023/05/20 22:56:40;;;;;;;;;;;;;;;16.47;72.45;102202.56;20807501;28;20325;-56
2023/05/20 23:07:01;;;;;;;;;;;;;;;16.33;69.86;102189.06;20801774;28;19936;-56
2023/05/20 23:17:22;;;;;;;;;;;;;;;16.11;70.48;102175.81;20798421;28;20377;-57
2023/05/20 23:27:44;;;;;;;;;;;;;;;15.99;74.21;102172.72;20812138;28;19932;-56
2023/05/20 23:38:06;;;;;;;;;;;;;;;15.89;71.59;102158.25;20810219;28;19948;-56
2023/05/20 23:48:27;;;;;;;;;;;;;;;15.85;71.82;102154.03;20820630;28;19925;-56
2023/05/20 23:58:49;;;;;;;;;;;;;;;15.80;71.25;102151.53;20803060;28;19936;-57
